Time;durP1;ratioP1;P1;durP2;ratioP2;P2;SDS_P1;SDS_P2;PMS_P1;PMS_P2;Temp;Humidity;BMP_temperature;BMP_pressure;BME280_temperature;BME280_humidity;BME280_pressure;Samples;Min_cycle;Max_cycle;Signal;HPM_P1;HPM_P2
2021/04/03 00:01:30;;;;;;;24.00;4.43;;;6.30;81.00;;;;;;5092358;28;20271;-68
2021/04/03 00:03:55;;;;;;;22.30;4.77;;;6.30;80.90;;;;;;5094019;28;20044;-67
2021/04/03 00:06:21;;;;;;;27.60;5.63;;;6.20;80.90;;;;;;5093310;28;20493;-67
2021/04/03 00:08:47;;;;;;;27.83;5.53;;;6.20;81.10;;;;;;5092459;28;20052;-68
2021/04/03 00:11:13;;;;;;;28.17;5.13;;;6.10;81.20;;;;;;5093009;28;20380;-68
2021/04/03 00:13:42;;;;;;;29.20;5.73;;;6.10;81.20;;;;;;5093232;28;20073;-67
2021/04/03 00:16:09;;;;;;;27.13;5.63;;;6.00;81.40;;;;;;5092761;28;20310;-67
2021/04/03 00:18:35;;;;;;;24.13;4.00;;;6.00;81.70;;;;;;5092942;28;20294;-67
2021/04/03 00:21:01;;;;;;;25.90;4.80;;;5.90;81.80;;;;;;5093232;28;20317;-67
2021/04/03 00:23:27;;;;;;;28.87;4.83;;;5.90;82.10;;;;;;5091771;28;20409;-67
2021/04/03 00:25:53;;;;;;;24.37;5.97;;;5.80;82.30;;;;;;5093228;28;20089;-67
2021/04/03 00:28:20;;;;;;;28.17;6.50;;;5.80;82.80;;;;;;5092824;28;20139;-68
2021/04/03 00:30:46;;;;;;;23.97;4.50;;;5.70;82.80;;;;;;5091935;28;20048;-67
2021/04/03 00:33:12;;;;;;;35.33;6.10;;;5.70;83.00;;;;;;5092773;28;20294;-67
2021/04/03 00:35:39;;;;;;;35.13;6.30;;;5.70;83.20;;;;;;5092574;28;20048;-68
2021/04/03 00:38:07;;;;;;;29.00;5.10;;;5.70;83.40;;;;;;5092818;28;20040;-67
2021/04/03 00:40:35;;;;;;;30.07;6.17;;;5.60;83.80;;;;;;5092032;28;20318;-67
2021/04/03 00:43:03;;;;;;;29.33;5.23;;;5.60;84.50;;;;;;5092297;28;20355;-67
2021/04/03 00:45:29;;;;;;;25.93;5.13;;;5.60;83.80;;;;;;5092347;28;20316;-67
2021/04/03 00:47:54;;;;;;;26.57;4.93;;;5.60;83.90;;;;;;5092643;28;20377;-67
2021/04/03 00:50:26;;;;;;;21.70;5.17;;;5.60;83.70;;;;;;5091727;28;20553;-67
2021/04/03 00:52:52;;;;;;;;;;;5.60;83.90;;;;;;5093117;28;20065;-67
2021/04/03 00:55:18;;;;;;;29.60;5.73;;;5.60;84.70;;;;;;5092426;28;19920;-67
2021/04/03 00:57:47;;;;;;;34.40;7.30;;;5.60;83.70;;;;;;5091657;28;20373;-67
2021/04/03 01:00:13;;;;;;;29.63;5.17;;;5.60;83.80;;;;;;5092298;28;20097;-67
2021/04/03 01:02:39;;;;;;;29.30;5.60;;;5.60;83.90;;;;;;5092065;28;20766;-67
2021/04/03 01:05:11;;;;;;;37.00;8.33;;;5.60;84.40;;;;;;5091794;28;20298;-67
2021/04/03 01:07:37;;;;;;;32.67;5.72;;;5.60;84.10;;;;;;5092018;28;20771;-67
2021/04/03 01:10:04;;;;;;;36.03;6.03;;;5.60;84.20;;;;;;5092540;28;20056;-67
2021/04/03 01:12:43;;;;;;;34.23;7.17;;;5.60;84.40;;;;;;5091144;28;20092;-68
2021/04/03 01:15:30;;;;;;;37.77;6.33;;;5.60;84.80;;;;;;5092243;28;20372;-67
2021/04/03 01:18:13;;;;;;;33.20;5.50;;;5.60;85.10;;;;;;5091298;28;20337;-67
2021/04/03 01:20:52;;;;;;;25.53;5.83;;;5.60;85.30;;;;;;5091953;28;20321;-67
2021/04/03 01:23:39;;;;;;;41.87;6.77;;;5.60;85.20;;;;;;5091842;28;20347;-67
2021/04/03 01:26:36;;;;;;;35.07;5.77;;;5.60;85.20;;;;;;5091329;28;20793;-67
2021/04/03 01:29:10;;;;;;;32.10;5.77;;;5.60;85.60;;;;;;5092211;28;20294;-67
2021/04/03 01:31:37;;;;;;;31.20;6.67;;;5.60;85.70;;;;;;5091728;28;20294;-67
2021/04/03 01:34:08;;;;;;;32.20;7.30;;;5.60;85.50;;;;;;5091203;28;20298;-67
2021/04/03 01:36:37;;;;;;;37.57;6.77;;;5.60;86.10;;;;;;5091075;28;20296;-67
2021/04/03 01:39:15;;;;;;;39.03;7.10;;;5.60;86.00;;;;;;5091278;28;20369;-67
2021/04/03 01:41:45;;;;;;;40.80;7.23;;;5.60;86.30;;;;;;5091582;28;20400;-67
2021/04/03 01:44:15;;;;;;;45.80;6.57;;;5.60;86.90;;;;;;5091028;28;20300;-67
2021/04/03 01:46:42;;;;;;;35.33;7.43;;;5.60;87.00;;;;;;5090827;28;20380;-67
2021/04/03 01:49:13;;;;;;;36.93;7.77;;;5.50;87.10;;;;;;5091467;28;20786;-67
2021/04/03 01:51:48;;;;;;;31.43;5.93;;;5.50;87.30;;;;;;5091403;28;20382;-67
2021/04/03 01:54:15;;;;;;;36.20;6.87;;;5.50;87.50;;;;;;5090737;28;20380;-67
2021/04/03 01:56:43;;;;;;;37.97;6.40;;;5.40;87.60;;;;;;5091578;28;20300;-67
2021/04/03 01:59:09;;;;;;;38.13;6.93;;;5.40;87.90;;;;;;5091742;28;20666;-67
2021/04/03 02:01:39;;;;;;;44.43;7.53;;;5.50;88.00;;;;;;5090186;28;20314;-67
2021/04/03 02:04:06;;;;;;;42.60;7.27;;;5.40;88.10;;;;;;5091556;28;20786;-67
2021/04/03 02:06:34;;;;;;;32.20;5.00;;;5.40;88.30;;;;;;5091053;28;20306;-67
2021/04/03 02:09:01;;;;;;;42.47;7.50;;;5.40;88.50;;;;;;5090806;28;20306;-67
2021/04/03 02:11:27;;;;;;;39.13;6.83;;;5.40;88.70;;;;;;5091007;28;20301;-67
2021/04/03 02:13:55;;;;;;;37.47;6.93;;;5.40;88.40;;;;;;5091367;28;20369;-67
2021/04/03 02:16:23;;;;;;;36.17;7.27;;;5.30;88.20;;;;;;5090209;28;20294;-67
2021/04/03 02:18:49;;;;;;;43.03;7.77;;;5.40;88.70;;;;;;5091026;28;20840;-67
2021/04/03 02:21:17;;;;;;;39.13;7.17;;;5.30;88.80;;;;;;5090410;28;20314;-67
2021/04/03 02:23:42;;;;;;;47.43;7.70;;;5.30;88.80;;;;;;5091180;28;20295;-67
2021/04/03 02:26:08;;;;;;;43.00;7.07;;;5.40;88.70;;;;;;5091372;28;20830;-68
2021/04/03 02:28:36;;;;;;;45.90;7.03;;;5.40;88.70;;;;;;5090099;28;20048;-67
2021/04/03 02:31:01;;;;;;;46.27;7.17;;;5.40;88.80;;;;;;5091558;28;20048;-67
2021/04/03 02:33:27;;;;;;;37.07;7.17;;;5.40;88.80;;;;;;5090931;28;20403;-67
2021/04/03 02:35:53;;;;;;;29.10;5.87;;;5.30;88.80;;;;;;5090716;28;20040;-67
2021/04/03 02:38:18;;;;;;;43.67;6.67;;;5.30;89.00;;;;;;5091088;28;20535;-68
2021/04/03 02:40:45;;;;;;;37.63;7.00;;;5.30;88.90;;;;;;5090937;28;20075;-67
2021/04/03 02:43:20;;;;;;;38.83;6.47;;;5.30;89.20;;;;;;5090225;28;20048;-67
2021/04/03 02:46:13;;;;;;;37.87;6.47;;;5.30;89.50;;;;;;5091146;28;20294;-67
2021/04/03 02:48:46;;;;;;;44.00;7.27;;;5.30;89.50;;;;;;5090760;28;20306;-67
2021/04/03 02:51:14;;;;;;;40.17;6.23;;;5.30;89.30;;;;;;5090171;28;20294;-68
2021/04/03 02:53:40;;;;;;;54.13;8.40;;;5.30;89.30;;;;;;5090805;28;20298;-67
2021/04/03 02:56:07;;;;;;;32.83;6.57;;;5.30;89.30;;;;;;5094812;28;20786;-67
2021/04/03 02:58:36;;;;;;;45.73;6.60;;;5.40;89.60;;;;;;5093739;28;20051;-67
2021/04/03 03:01:04;;;;;;;44.83;7.40;;;5.40;89.30;;;;;;5094936;28;20390;-67
2021/04/03 03:03:32;;;;;;;39.30;6.87;;;5.50;89.10;;;;;;5093574;28;20298;-67
2021/04/03 03:05:59;;;;;;;39.43;6.87;;;5.50;89.30;;;;;;5094750;28;20377;-67
2021/04/03 03:08:27;;;;;;;43.50;7.27;;;5.50;89.20;;;;;;5094515;28;20373;-67
2021/04/03 03:10:54;;;;;;;42.40;7.67;;;5.50;89.30;;;;;;5094072;28;20662;-67
2021/04/03 03:13:21;;;;;;;41.43;7.33;;;5.50;89.20;;;;;;5094361;28;20290;-67
2021/04/03 03:15:47;;;;;;;31.37;6.27;;;5.50;89.50;;;;;;5094270;28;20305;-67
2021/04/03 03:18:15;;;;;;;51.37;8.10;;;5.60;89.60;;;;;;5093577;28;20290;-68
2021/04/03 03:20:43;;;;;;;43.33;6.87;;;5.60;89.50;;;;;;5094065;28;20313;-67
2021/04/03 03:23:11;;;;;;;35.73;7.10;;;5.60;89.50;;;;;;5094555;28;20379;-68
2021/04/03 03:25:38;;;;;;;44.00;7.57;;;5.60;89.50;;;;;;5093585;28;20306;-67
2021/04/03 03:28:04;;;;;;;37.87;7.00;;;5.60;89.60;;;;;;5094492;28;20302;-67
2021/04/03 03:30:31;;;;;;;42.90;8.03;;;5.60;89.70;;;;;;5093779;28;20771;-68
2021/04/03 03:32:57;;;;;;;44.90;7.33;;;5.70;90.00;;;;;;5093581;28;20320;-67
2021/04/03 03:35:23;;;;;;;37.10;7.10;;;5.70;89.80;;;;;;5093865;28;20840;-67
2021/04/03 03:37:49;;;;;;;41.23;6.67;;;5.70;89.80;;;;;;5093830;28;20451;-67
2021/04/03 03:40:16;;;;;;;50.40;7.57;;;5.70;89.80;;;;;;5092923;28;20055;-67
2021/04/03 03:42:43;;;;;;;44.30;7.57;;;5.80;89.70;;;;;;5093917;28;20352;-67
2021/04/03 03:45:10;;;;;;;44.53;8.33;;;5.80;89.70;;;;;;5094095;28;20383;-67
2021/04/03 03:47:36;;;;;;;45.73;7.80;;;5.80;89.50;;;;;;5092775;28;20782;-68
2021/04/03 03:50:04;;;;;;;44.57;7.43;;;5.90;89.60;;;;;;5093767;28;20852;-67
2021/04/03 03:52:29;;;;;;;32.30;6.57;;;5.90;89.60;;;;;;5093355;28;20668;-68
2021/04/03 03:54:55;;;;;;;43.37;7.23;;;5.90;89.60;;;;;;5093151;28;20381;-67
2021/04/03 03:57:21;;;;;;;40.87;7.23;;;5.90;89.50;;;;;;5093345;28;20075;-67
2021/04/03 03:59:47;;;;;;;41.93;7.67;;;5.90;89.50;;;;;;5092658;28;20581;-67
2021/04/03 04:02:13;;;;;;;40.03;7.00;;;6.00;89.50;;;;;;5093168;28;20329;-67
2021/04/03 04:04:38;;;;;;;47.73;8.03;;;6.00;89.60;;;;;;5093601;28;20401;-67
2021/04/03 04:07:04;;;;;;;41.50;7.10;;;6.00;89.50;;;;;;5092175;28;20048;-67
2021/04/03 04:09:30;;;;;;;39.33;6.80;;;6.00;89.40;;;;;;5092885;28;20499;-67
2021/04/03 04:12:01;;;;;;;35.37;7.13;;;6.00;89.50;;;;;;5093679;28;20294;-67
2021/04/03 04:14:26;;;;;;;44.87;8.00;;;6.00;89.40;;;;;;5092068;28;20860;-67
2021/04/03 04:16:52;;;;;;;38.40;7.20;;;6.10;89.40;;;;;;5093265;28;20294;-68
2021/04/03 04:19:18;;;;;;;49.23;8.13;;;6.10;89.50;;;;;;5093255;28;20105;-67
2021/04/03 04:21:43;;;;;;;39.00;6.27;;;6.10;89.50;;;;;;5094987;28;20044;-67
2021/04/03 04:24:09;;;;;;;38.53;7.60;;;6.10;89.50;;;;;;5095286;28;20780;-67
2021/04/03 04:26:35;;;;;;;38.47;6.87;;;6.10;89.60;;;;;;5095145;28;20052;-67
2021/04/03 04:29:01;;;;;;;35.60;6.57;;;6.10;89.60;;;;;;5101469;28;20846;-67
2021/04/03 04:31:26;;;;;;;30.57;5.90;;;6.10;89.60;;;;;;5099819;28;20059;-67
2021/04/03 04:33:52;;;;;;;47.33;7.30;;;6.00;89.50;;;;;;5113277;28;20499;-67
2021/04/03 04:36:18;;;;;;;36.20;7.57;;;6.00;89.60;;;;;;5112476;28;20047;-67
2021/04/03 04:38:43;;;;;;;35.53;6.63;;;6.10;89.60;;;;;;5113174;28;20059;-67
2021/04/03 04:41:09;;;;;;;35.40;6.77;;;6.10;89.60;;;;;;5113217;28;20059;-67
2021/04/03 04:43:35;;;;;;;44.60;7.83;;;6.10;89.50;;;;;;5111955;28;20051;-67
2021/04/03 04:46:00;;;;;;;38.37;7.27;;;6.10;89.50;;;;;;5113208;28;20051;-67
2021/04/03 04:48:26;;;;;;;44.30;7.73;;;6.00;89.50;;;;;;5112760;28;20086;-67
2021/04/03 04:50:51;;;;;;;43.87;7.67;;;6.10;89.60;;;;;;5112347;28;20071;-67
2021/04/03 04:53:17;;;;;;;46.97;7.80;;;6.00;89.50;;;;;;5112968;28;20495;-67
2021/04/03 04:55:43;;;;;;;46.33;9.73;;;6.10;89.60;;;;;;5112836;28;20047;-67
2021/04/03 04:58:08;;;;;;;41.77;8.00;;;6.10;89.60;;;;;;5112297;28;20516;-67
2021/04/03 05:00:54;;;;;;;40.17;7.57;;;6.10;89.60;;;;;;5097874;28;20077;-67
2021/04/03 05:03:20;;;;;;;53.57;7.67;;;6.10;89.70;;;;;;5112066;28;20297;-67
2021/04/03 05:05:46;;;;;;;44.50;7.70;;;6.10;89.70;;;;;;5112669;28;20449;-67
2021/04/03 05:08:11;;;;;;;49.70;7.93;;;6.10;89.60;;;;;;5112566;28;20048;-68
2021/04/03 05:10:38;;;;;;;52.37;8.83;;;6.10;89.80;;;;;;5111719;28;20048;-67
2021/04/03 05:13:04;;;;;;;39.77;6.83;;;6.00;89.80;;;;;;5107240;28;20662;-67
2021/04/03 05:15:30;;;;;;;43.73;8.23;;;6.00;89.90;;;;;;5099939;28;20085;-68
2021/04/03 05:17:57;;;;;;;39.27;8.23;;;6.00;90.00;;;;;;5102498;28;20289;-67
2021/04/03 05:20:22;;;;;;;46.13;8.53;;;6.00;90.10;;;;;;5101385;28;20070;-67
2021/04/03 05:22:48;;;;;;;44.70;8.80;;;6.00;90.10;;;;;;5101215;28;20773;-67
2021/04/03 05:25:14;;;;;;;42.87;8.13;;;5.90;90.00;;;;;;5101832;28;20039;-67
2021/04/03 05:27:41;;;;;;;42.77;7.70;;;5.90;90.10;;;;;;5100976;28;20423;-67
2021/04/03 05:30:09;;;;;;;43.90;8.10;;;5.90;90.10;;;;;;5101435;28;20293;-67
2021/04/03 05:32:35;;;;;;;40.10;6.93;;;6.00;90.20;;;;;;5102007;28;20301;-67
2021/04/03 05:35:01;;;;;;;49.40;7.67;;;6.00;90.70;;;;;;5102940;28;20317;-67
2021/04/03 05:37:27;;;;;;;41.20;7.93;;;6.00;90.30;;;;;;5100378;28;20809;-67
2021/04/03 05:39:52;;;;;;;45.10;7.40;;;6.00;90.30;;;;;;5100837;28;20043;-67
2021/04/03 05:42:19;;;;;;;45.27;7.90;;;6.00;90.30;;;;;;5102034;28;20044;-67
2021/04/03 05:44:45;;;;;;;39.80;7.70;;;6.00;90.20;;;;;;5100387;28;20040;-67
2021/04/03 05:47:12;;;;;;;40.27;6.50;;;6.00;90.20;;;;;;5101048;28;20381;-68
2021/04/03 05:49:39;;;;;;;39.43;7.20;;;6.10;90.20;;;;;;5102180;28;20392;-67
2021/04/03 05:52:06;;;;;;;37.60;7.47;;;6.00;90.20;;;;;;5112234;28;20301;-67
2021/04/03 05:54:34;;;;;;;40.90;7.83;;;6.10;90.30;;;;;;5110800;28;20686;-67
2021/04/03 05:57:00;;;;;;;52.37;8.03;;;6.10;90.30;;;;;;5111920;28;20369;-67
2021/04/03 05:59:26;;;;;;;39.77;7.27;;;6.10;90.30;;;;;;5110980;28;20462;-68
2021/04/03 06:01:52;;;;;;;48.60;8.47;;;6.10;90.40;;;;;;5111958;28;20051;-67
2021/04/03 06:04:18;;;;;;;46.83;7.80;;;6.10;90.40;;;;;;5111871;28;20293;-68
2021/04/03 06:06:43;;;;;;;45.90;7.60;;;6.10;90.30;;;;;;5110891;28;20515;-67
2021/04/03 06:09:09;;;;;;;40.10;8.20;;;6.20;90.30;;;;;;5111999;28;20067;-67
2021/04/03 06:11:49;;;;;;;48.07;8.03;;;6.20;90.20;;;;;;5111305;28;20059;-68
2021/04/03 06:14:16;;;;;;;44.40;8.00;;;6.20;90.30;;;;;;5111070;28;20054;-68
2021/04/03 06:16:49;;;;;;;42.70;6.80;;;6.30;90.20;;;;;;5111744;28;20298;-67
2021/04/03 06:19:22;;;;;;;40.03;7.70;;;6.30;90.20;;;;;;5111358;28;20302;-67
2021/04/03 06:22:00;;;;;;;45.20;8.03;;;6.30;90.10;;;;;;5110637;28;20317;-67
2021/04/03 06:24:34;;;;;;;40.17;7.78;;;6.40;90.10;;;;;;5110876;28;20329;-68
2021/04/03 06:27:06;;;;;;;40.67;7.23;;;6.40;90.10;;;;;;5111837;28;20086;-68
2021/04/03 06:29:40;;;;;;;38.45;6.95;;;6.40;90.10;;;;;;5111604;28;20346;-67
2021/04/03 06:32:09;;;;;;;37.03;8.27;;;6.50;90.00;;;;;;5115710;28;20112;-68
2021/04/03 06:34:44;;;;;;;51.27;9.23;;;6.50;90.00;;;;;;5114285;28;20301;-68
2021/04/03 06:37:10;;;;;;;33.17;7.20;;;6.60;90.00;;;;;;5115925;28;20308;-68
2021/04/03 06:39:53;;;;;;;36.53;8.27;;;6.60;89.90;;;;;;5115322;28;20371;-67
2021/04/03 06:42:47;;;;;;;43.80;8.23;;;6.60;89.70;;;;;;5114656;28;20381;-67
2021/04/03 06:45:29;;;;;;;40.97;8.13;;;6.70;89.70;;;;;;5115496;28;20290;-68
2021/04/03 06:48:03;;;;;;;45.53;8.10;;;6.70;89.60;;;;;;5115517;28;20328;-68
2021/04/03 06:50:38;;;;;;;46.73;8.20;;;6.60;89.50;;;;;;5114071;28;20188;-68
2021/04/03 06:53:09;;;;;;;39.10;7.87;;;6.60;89.50;;;;;;5115123;28;20608;-67
2021/04/03 06:55:36;;;;;;;47.80;9.37;;;6.60;89.50;;;;;;5094161;28;20779;-67
2021/04/03 06:58:03;;;;;;;35.60;7.57;;;6.60;89.40;;;;;;5094752;28;20325;-67
2021/04/03 07:00:33;;;;;;;45.83;8.00;;;6.60;89.60;;;;;;5094139;28;20317;-68
2021/04/03 07:03:10;;;;;;;48.13;8.40;;;6.60;89.60;;;;;;5094100;28;20298;-68
2021/04/03 07:05:37;;;;;;;42.40;8.23;;;6.60;89.60;;;;;;5094318;28;20298;-68
2021/04/03 07:08:05;;;;;;;42.83;8.33;;;6.60;89.70;;;;;;5094825;28;20351;-67
2021/04/03 07:10:32;;;;;;;39.17;7.77;;;6.60;89.70;;;;;;5093428;28;20371;-68
2021/04/03 07:12:58;;;;;;;40.70;8.10;;;6.70;89.90;;;;;;5094846;28;20396;-67
2021/04/03 07:15:26;;;;;;;36.30;8.13;;;6.80;89.70;;;;;;5094111;28;20767;-68
2021/04/03 07:17:53;;;;;;;45.03;8.23;;;6.90;89.70;;;;;;5093638;28;20313;-67
2021/04/03 07:20:21;;;;;;;36.30;7.40;;;7.00;89.50;;;;;;5094022;28;20318;-68
2021/04/03 07:22:51;;;;;;;41.07;8.63;;;7.20;89.30;;;;;;5094214;28;20302;-68
2021/04/03 07:25:20;;;;;;;40.77;9.47;;;7.40;89.00;;;;;;5093369;28;20355;-67
2021/04/03 07:27:47;;;;;;;37.87;8.10;;;7.50;88.40;;;;;;5094107;28;20305;-67
2021/04/03 07:30:13;;;;;;;40.47;7.87;;;7.60;88.10;;;;;;5093841;28;20298;-66
2021/04/03 07:32:42;;;;;;;37.80;7.20;;;7.70;87.90;;;;;;5093462;28;20309;-66
2021/04/03 07:35:20;;;;;;;38.00;7.77;;;7.70;87.60;;;;;;5093986;28;20321;-66
2021/04/03 07:37:47;;;;;;;39.23;7.63;;;7.80;87.40;;;;;;5092788;28;21145;-66
2021/04/03 07:40:33;;;;;;;42.60;8.37;;;7.80;87.40;;;;;;5093176;28;20321;-67
2021/04/03 07:42:58;;;;;;;38.07;8.70;;;7.90;86.90;;;;;;5093259;28;20373;-66
2021/04/03 07:45:30;;;;;;;42.50;8.10;;;7.90;86.60;;;;;;5093052;28;20413;-67
2021/04/03 07:47:56;;;;;;;39.97;7.63;;;7.90;86.30;;;;;;5093617;28;20043;-65
2021/04/03 07:50:40;;;;;;;36.97;8.00;;;7.80;86.40;;;;;;5093866;28;20148;-66
2021/04/03 07:53:07;;;;;;;35.23;7.87;;;7.80;86.30;;;;;;5093103;28;20048;-67
2021/04/03 07:55:35;;;;;;;39.80;7.40;;;7.90;86.50;;;;;;5093099;28;20305;-67
2021/04/03 07:58:19;;;;;;;34.37;7.33;;;8.00;85.70;;;;;;5093799;28;20294;-66
2021/04/03 08:00:46;;;;;;;27.60;6.83;;;8.10;84.80;;;;;;5092287;28;20863;-66
2021/04/03 08:03:12;;;;;;;23.77;6.17;;;8.20;84.70;;;;;;5093281;28;20309;-66
2021/04/03 08:05:38;;;;;;;41.17;7.50;;;8.40;83.40;;;;;;5093193;28;20294;-66
2021/04/03 08:08:08;;;;;;;44.87;8.37;;;8.70;83.10;;;;;;5092487;28;20500;-66
2021/04/03 08:10:34;;;;;;;26.73;6.83;;;8.70;81.50;;;;;;5092809;28;20386;-66
2021/04/03 08:13:01;;;;;;;36.80;6.30;;;8.60;80.80;;;;;;5092543;28;20298;-66
2021/04/03 08:15:28;;;;;;;39.07;7.57;;;8.80;81.20;;;;;;5092783;28;20047;-66
2021/04/03 08:17:54;;;;;;;38.33;7.50;;;9.00;81.80;;;;;;5093316;28;20301;-66
2021/04/03 08:20:21;;;;;;;45.17;7.50;;;9.30;80.70;;;;;;5091819;28;20310;-66
2021/04/03 08:23:00;;;;;;;34.77;6.63;;;9.40;80.10;;;;;;5092610;28;20309;-66
2021/04/03 08:25:26;;;;;;;36.97;7.20;;;9.60;78.60;;;;;;5092658;28;20347;-66
2021/04/03 08:27:54;;;;;;;30.97;6.73;;;9.70;79.50;;;;;;5092412;28;20374;-66
2021/04/03 08:30:32;;;;;;;40.30;7.10;;;9.60;78.50;;;;;;5092577;28;20055;-66
2021/04/03 08:33:05;;;;;;;36.83;7.87;;;9.30;77.70;;;;;;5092797;28;20348;-66
2021/04/03 08:35:31;;;;;;;30.70;7.07;;;9.20;78.70;;;;;;5091419;28;20366;-66
2021/04/03 08:38:19;;;;;;;29.30;6.87;;;9.20;79.10;;;;;;5092895;28;20294;-67
2021/04/03 08:40:45;;;;;;;29.83;6.73;;;9.30;77.70;;;;;;5092503;28;20710;-67
2021/04/03 08:43:25;;;;;;;26.53;5.53;;;9.30;77.60;;;;;;5091864;28;20319;-67
2021/04/03 08:45:52;;;;;;;25.23;6.20;;;9.20;77.30;;;;;;5092390;28;20336;-66
2021/04/03 08:48:19;;;;;;;32.83;6.93;;;9.20;77.50;;;;;;5091603;28;20302;-67
2021/04/03 08:50:47;;;;;;;36.07;6.53;;;9.50;77.10;;;;;;5092467;28;20388;-66
2021/04/03 08:53:15;;;;;;;26.80;5.83;;;9.80;77.50;;;;;;5091932;28;20298;-67
2021/04/03 08:55:40;;;;;;;29.73;6.30;;;10.30;76.40;;;;;;5091323;28;20659;-67
2021/04/03 08:58:07;;;;;;;30.13;6.23;;;10.50;75.80;;;;;;5092321;28;20294;-67
2021/04/03 09:00:34;;;;;;;28.00;6.43;;;10.60;74.20;;;;;;5091905;28;20052;-67
2021/04/03 09:03:00;;;;;;;26.03;5.63;;;10.70;73.60;;;;;;5091567;28;20298;-66
2021/04/03 09:05:27;;;;;;;24.60;6.13;;;10.60;74.20;;;;;;5091799;28;20067;-67
2021/04/03 09:07:53;;;;;;;29.17;5.73;;;10.40;72.60;;;;;;5092213;28;20044;-67
2021/04/03 09:10:21;;;;;;;28.70;6.73;;;10.80;72.70;;;;;;5091188;28;20439;-67
2021/04/03 09:12:49;;;;;;;28.93;6.87;;;10.90;71.30;;;;;;5091641;28;20052;-67
2021/04/03 09:15:26;;;;;;;31.00;5.93;;;10.80;71.40;;;;;;5092136;28;20290;-67
2021/04/03 09:17:54;;;;;;;32.80;6.33;;;10.50;71.40;;;;;;5091495;28;20051;-67
2021/04/03 09:20:23;;;;;;;24.80;6.53;;;10.30;71.90;;;;;;5091738;28;20044;-67
2021/04/03 09:22:51;;;;;;;29.70;7.17;;;10.50;72.00;;;;;;5091675;28;20056;-67
2021/04/03 09:25:19;;;;;;;24.77;6.30;;;10.70;71.80;;;;;;5090760;28;20048;-67
2021/04/03 09:28:06;;;;;;;29.20;6.10;;;10.60;69.80;;;;;;5091743;28;20075;-67
2021/04/03 09:30:43;;;;;;;31.13;6.63;;;10.30;69.80;;;;;;5090094;28;20915;-67
2021/04/03 09:33:22;;;;;;;31.73;6.90;;;10.00;70.90;;;;;;5091855;28;20051;-67
2021/04/03 09:35:50;;;;;;;27.17;4.83;;;10.10;71.20;;;;;;5091485;28;20062;-67
2021/04/03 09:38:27;;;;;;;26.80;5.63;;;10.00;69.90;;;;;;5090571;28;20040;-67
2021/04/03 09:40:53;;;;;;;24.80;6.07;;;9.60;69.10;;;;;;5091417;28;20051;-67
2021/04/03 09:43:19;;;;;;;30.37;5.67;;;9.60;70.50;;;;;;5091263;28;20294;-67
2021/04/03 09:45:44;;;;;;;26.07;5.33;;;9.70;70.30;;;;;;5090308;28;20141;-67
2021/04/03 09:48:11;;;;;;;37.33;6.87;;;9.80;70.10;;;;;;5091123;28;20060;-67
2021/04/03 09:50:38;;;;;;;33.13;6.93;;;9.80;70.30;;;;;;5091077;28;20604;-67
2021/04/03 09:53:11;;;;;;;28.93;5.83;;;9.80;70.60;;;;;;5090455;28;20782;-67
2021/04/03 09:55:37;;;;;;;23.63;5.10;;;9.80;70.60;;;;;;5091186;28;20317;-67
2021/04/03 09:58:03;;;;;;;28.17;5.77;;;9.80;70.40;;;;;;5091072;28;20309;-68
2021/04/03 10:00:29;;;;;;;20.87;5.23;;;9.90;70.20;;;;;;5090034;28;20314;-67
2021/04/03 10:02:55;;;;;;;20.73;4.80;;;10.00;69.90;;;;;;5091114;28;20418;-67
2021/04/03 10:05:21;;;;;;;22.63;5.33;;;10.10;69.80;;;;;;5089682;28;20301;-68
2021/04/03 10:07:47;;;;;;;22.60;5.53;;;10.10;69.30;;;;;;5090831;28;20040;-68
2021/04/03 10:10:13;;;;;;;21.53;6.23;;;10.00;69.40;;;;;;5091072;28;20317;-68
2021/04/03 10:12:39;;;;;;;29.30;5.03;;;9.80;70.00;;;;;;5090090;28;20481;-68
2021/04/03 10:15:05;;;;;;;30.10;5.53;;;9.90;71.30;;;;;;5091052;28;20048;-68
2021/04/03 10:17:31;;;;;;;28.53;5.07;;;9.90;69.20;;;;;;5090358;28;20058;-68
2021/04/03 10:19:56;;;;;;;32.47;5.90;;;9.90;69.90;;;;;;5090551;28;20298;-67
2021/04/03 10:22:22;;;;;;;23.90;5.00;;;9.90;69.70;;;;;;5090861;28;20109;-67
2021/04/03 10:24:47;;;;;;;24.17;5.20;;;9.90;69.60;;;;;;5091047;28;20048;-67
2021/04/03 10:27:13;;;;;;;26.47;5.23;;;9.90;69.10;;;;;;5090063;28;20056;-67
2021/04/03 10:29:39;;;;;;;21.67;4.30;;;9.70;68.50;;;;;;5090753;28;20485;-66
2021/04/03 10:32:05;;;;;;;21.53;4.60;;;9.60;68.40;;;;;;5090675;28;20048;-66
2021/04/03 10:34:30;;;;;;;20.90;4.77;;;9.70;68.90;;;;;;5089815;28;20464;-66
2021/04/03 10:36:56;;;;;;;28.70;5.67;;;9.90;69.50;;;;;;5091033;28;20298;-67
2021/04/03 10:39:22;;;;;;;31.20;6.17;;;10.10;68.70;;;;;;5090403;28;20052;-67
2021/04/03 10:41:47;;;;;;;27.77;5.03;;;10.20;68.20;;;;;;5089780;28;20062;-67
2021/04/03 10:44:13;;;;;;;35.30;6.90;;;10.20;68.20;;;;;;5090805;28;20044;-67
2021/04/03 10:46:39;;;;;;;22.83;5.27;;;10.30;68.30;;;;;;5090568;28;20404;-68
2021/04/03 10:49:04;;;;;;;27.53;6.17;;;10.50;68.20;;;;;;5090168;28;20145;-67
2021/04/03 10:51:30;;;;;;;22.57;5.17;;;10.60;68.10;;;;;;5090316;28;20067;-69
2021/04/03 10:53:56;;;;;;;20.53;5.23;;;10.60;67.20;;;;;;5090601;28;20055;-67
2021/04/03 10:56:22;;;;;;;20.43;4.87;;;10.50;67.40;;;;;;5089986;28;20063;-67
2021/04/03 10:58:47;;;;;;;22.70;4.60;;;10.50;67.30;;;;;;5090653;28;20048;-67
2021/04/03 11:01:13;;;;;;;22.60;4.37;;;10.40;66.60;;;;;;5090322;28;20143;-68
2021/04/03 11:03:39;;;;;;;22.43;5.20;;;10.40;65.90;;;;;;5090073;28;20046;-68
2021/04/03 11:06:05;;;;;;;20.87;4.50;;;10.30;66.10;;;;;;5090775;28;20612;-67
2021/04/03 11:08:31;;;;;;;26.63;5.23;;;10.40;65.80;;;;;;5090263;28;20106;-68
2021/04/03 11:10:57;;;;;;;23.23;5.50;;;10.60;66.20;;;;;;5107431;28;20301;-68
2021/04/03 11:13:23;;;;;;;24.53;5.23;;;10.80;65.20;;;;;;5110908;28;20047;-68
2021/04/03 11:15:49;;;;;;;25.63;5.40;;;10.60;65.10;;;;;;5111318;28;20128;-67
2021/04/03 11:18:15;;;;;;;16.80;3.83;;;10.50;66.30;;;;;;5114564;28;20412;-68
2021/04/03 11:20:41;;;;;;;18.73;5.10;;;10.50;65.50;;;;;;5114395;28;20044;-67
2021/04/03 11:23:07;;;;;;;17.73;4.07;;;10.30;65.20;;;;;;5113777;28;20336;-67
2021/04/03 11:25:33;;;;;;;19.50;4.83;;;10.20;65.30;;;;;;5113931;28;20124;-68
2021/04/03 11:28:00;;;;;;;22.37;5.10;;;10.10;64.60;;;;;;5114229;28;20122;-68
2021/04/03 11:30:26;;;;;;;16.37;4.90;;;10.10;65.40;;;;;;5113283;28;20305;-68
2021/04/03 11:32:52;;;;;;;25.77;5.77;;;10.20;65.90;;;;;;5114151;28;20346;-68
2021/04/03 11:35:22;;;;;;;22.63;5.03;;;10.30;65.80;;;;;;5114190;28;20047;-66
2021/04/03 11:37:49;;;;;;;20.93;3.97;;;10.40;65.30;;;;;;5113310;28;20088;-67
2021/04/03 11:40:16;;;;;;;18.10;4.57;;;10.30;64.40;;;;;;5113731;28;20488;-67
2021/04/03 11:42:44;;;;;;;21.10;4.17;;;10.10;64.40;;;;;;5113692;28;20297;-66
2021/04/03 11:45:10;;;;;;;16.43;4.47;;;10.00;65.00;;;;;;5113249;28;20778;-68
2021/04/03 11:47:37;;;;;;;23.27;4.93;;;10.10;65.30;;;;;;5113421;28;20377;-68
2021/04/03 11:50:04;;;;;;;21.37;4.97;;;10.20;65.20;;;;;;5114098;28;20297;-68
2021/04/03 11:52:32;;;;;;;22.80;4.73;;;10.10;65.60;;;;;;5112680;28;20301;-68
2021/04/03 11:54:57;;;;;;;21.63;4.37;;;10.10;65.90;;;;;;5113757;28;20297;-67
2021/04/03 11:57:23;;;;;;;17.13;3.80;;;10.10;65.60;;;;;;5113506;28;20378;-66
2021/04/03 11:59:49;;;;;;;18.70;4.17;;;10.20;65.20;;;;;;5112947;28;20138;-67
2021/04/03 12:02:14;;;;;;;23.37;4.37;;;10.10;64.70;;;;;;5113203;28;20457;-66
2021/04/03 12:04:40;;;;;;;22.97;4.90;;;10.20;65.10;;;;;;5113441;28;20130;-67
2021/04/03 12:07:06;;;;;;;22.17;4.70;;;10.40;65.20;;;;;;5109074;28;20374;-67
2021/04/03 12:09:32;;;;;;;18.10;4.23;;;10.50;65.00;;;;;;5102161;28;20446;-68
2021/04/03 12:11:58;;;;;;;19.53;4.23;;;10.60;63.90;;;;;;5103412;28;20043;-68
2021/04/03 12:14:24;;;;;;;20.77;4.67;;;10.60;63.30;;;;;;5102008;28;20043;-67
2021/04/03 12:16:50;;;;;;;22.30;4.80;;;10.50;63.20;;;;;;5102536;28;20097;-67
2021/04/03 12:19:15;;;;;;;18.80;4.53;;;10.40;63.30;;;;;;5108526;28;20043;-67
2021/04/03 12:21:41;;;;;;;22.57;5.07;;;10.40;63.30;;;;;;5113150;28;20055;-66
2021/04/03 12:24:07;;;;;;;23.27;4.37;;;10.30;63.20;;;;;;5113214;28;20124;-67
2021/04/03 12:26:33;;;;;;;18.10;5.43;;;10.30;63.80;;;;;;5111418;28;20105;-68
2021/04/03 12:28:58;;;;;;;23.53;4.90;;;10.30;62.90;;;;;;5100591;28;20096;-67
2021/04/03 12:31:24;;;;;;;20.60;4.70;;;10.20;62.20;;;;;;5103457;28;20238;-68
2021/04/03 12:33:50;;;;;;;22.97;5.47;;;10.10;62.60;;;;;;5101310;28;20044;-69
2021/04/03 12:36:17;;;;;;;17.40;4.57;;;10.10;63.60;;;;;;5101885;28;20561;-68
2021/04/03 12:38:43;;;;;;;16.43;4.30;;;10.10;63.60;;;;;;5103467;28;20040;-68
2021/04/03 12:41:09;;;;;;;16.37;3.77;;;10.20;63.40;;;;;;5106935;28;20325;-68
2021/04/03 12:43:35;;;;;;;24.90;5.33;;;10.00;63.10;;;;;;5112593;28;20294;-68
2021/04/03 12:46:01;;;;;;;19.87;4.10;;;9.90;63.80;;;;;;5113204;28;20446;-69
2021/04/03 12:48:27;;;;;;;20.20;4.67;;;9.90;64.20;;;;;;5106985;28;20305;-69
2021/04/03 12:50:53;;;;;;;20.33;4.63;;;9.90;64.30;;;;;;5112747;28;20139;-68